sensor_id;sensor_type;location;lat;lon;timestamp;P1;durP1;ratioP1;P2;durP2;ratioP2
4980;SDS011;2507;50.392;7.482;2023-05-18T00:00:36;8.80;;;4.60;;
4980;SDS011;2507;50.392;7.482;2023-05-18T00:03:01;5.57;;;3.50;;
4980;SDS011;2507;50.392;7.482;2023-05-18T00:05:27;7.13;;;3.50;;
4980;SDS011;2507;50.392;7.482;2023-05-18T00:08:00;7.23;;;3.67;;
4980;SDS011;2507;50.392;7.482;2023-05-18T00:10:26;5.07;;;3.07;;
4980;SDS011;2507;50.392;7.482;2023-05-18T00:12:51;3.77;;;3.23;;
4980;SDS011;2507;50.392;7.482;2023-05-18T00:15:17;7.53;;;3.60;;
4980;SDS011;2507;50.392;7.482;2023-05-18T00:17:42;5.73;;;3.50;;
4980;SDS011;2507;50.392;7.482;2023-05-18T00:20:09;6.30;;;4.10;;
4980;SDS011;2507;50.392;7.482;2023-05-18T00:22:35;8.03;;;3.87;;
4980;SDS011;2507;50.392;7.482;2023-05-18T00:25:03;5.90;;;3.37;;
4980;SDS011;2507;50.392;7.482;2023-05-18T00:27:29;9.67;;;7.10;;
4980;SDS011;2507;50.392;7.482;2023-05-18T00:29:55;4.80;;;3.80;;
4980;SDS011;2507;50.392;7.482;2023-05-18T00:32:20;9.20;;;5.50;;
4980;SDS011;2507;50.392;7.482;2023-05-18T00:34:46;5.63;;;4.10;;
4980;SDS011;2507;50.392;7.482;2023-05-18T00:37:14;9.00;;;4.67;;
4980;SDS011;2507;50.392;7.482;2023-05-18T00:39:39;7.30;;;4.67;;
4980;SDS011;2507;50.392;7.482;2023-05-18T00:42:05;3.73;;;3.43;;
4980;SDS011;2507;50.392;7.482;2023-05-18T00:44:31;3.73;;;3.23;;
4980;SDS011;2507;50.392;7.482;2023-05-18T00:46:56;8.07;;;3.00;;
4980;SDS011;2507;50.392;7.482;2023-05-18T00:49:24;6.20;;;4.70;;
4980;SDS011;2507;50.392;7.482;2023-05-18T00:51:50;8.60;;;3.97;;
4980;SDS011;2507;50.392;7.482;2023-05-18T00:54:16;6.87;;;3.27;;
4980;SDS011;2507;50.392;7.482;2023-05-18T00:56:41;6.83;;;3.40;;
4980;SDS011;2507;50.392;7.482;2023-05-18T00:59:10;5.90;;;3.30;;
4980;SDS011;2507;50.392;7.482;2023-05-18T01:01:35;6.30;;;3.83;;
4980;SDS011;2507;50.392;7.482;2023-05-18T01:04:07;5.33;;;3.20;;
4980;SDS011;2507;50.392;7.482;2023-05-18T01:06:34;4.13;;;3.20;;
4980;SDS011;2507;50.392;7.482;2023-05-18T01:09:01;5.80;;;4.63;;
4980;SDS011;2507;50.392;7.482;2023-05-18T01:14:12;10.43;;;3.83;;
4980;SDS011;2507;50.392;7.482;2023-05-18T01:16:42;13.27;;;3.97;;
4980;SDS011;2507;50.392;7.482;2023-05-18T01:25:09;7.10;;;4.00;;
4980;SDS011;2507;50.392;7.482;2023-05-18T01:27:42;8.50;;;3.90;;
4980;SDS011;2507;50.392;7.482;2023-05-18T01:30:12;7.03;;;4.80;;
4980;SDS011;2507;50.392;7.482;2023-05-18T01:32:40;7.53;;;4.53;;
4980;SDS011;2507;50.392;7.482;2023-05-18T01:35:07;4.63;;;4.30;;
4980;SDS011;2507;50.392;7.482;2023-05-18T01:37:33;6.00;;;4.67;;
4980;SDS011;2507;50.392;7.482;2023-05-18T01:39:58;4.67;;;3.63;;
4980;SDS011;2507;50.392;7.482;2023-05-18T01:42:25;6.40;;;3.80;;
4980;SDS011;2507;50.392;7.482;2023-05-18T01:44:55;9.13;;;4.40;;
4980;SDS011;2507;50.392;7.482;2023-05-18T01:47:25;13.90;;;4.43;;
4980;SDS011;2507;50.392;7.482;2023-05-18T01:49:55;8.93;;;4.63;;
4980;SDS011;2507;50.392;7.482;2023-05-18T01:52:35;4.43;;;4.00;;
4980;SDS011;2507;50.392;7.482;2023-05-18T01:55:04;5.77;;;4.10;;
4980;SDS011;2507;50.392;7.482;2023-05-18T01:57:32;3.87;;;3.47;;
4980;SDS011;2507;50.392;7.482;2023-05-18T02:00:00;5.50;;;3.80;;
4980;SDS011;2507;50.392;7.482;2023-05-18T02:02:29;6.40;;;3.67;;
4980;SDS011;2507;50.392;7.482;2023-05-18T02:04:55;6.70;;;4.27;;
4980;SDS011;2507;50.392;7.482;2023-05-18T02:07:20;5.63;;;3.80;;
4980;SDS011;2507;50.392;7.482;2023-05-18T02:09:45;7.20;;;4.30;;
4980;SDS011;2507;50.392;7.482;2023-05-18T02:12:11;7.83;;;4.23;;
4980;SDS011;2507;50.392;7.482;2023-05-18T02:14:36;7.47;;;4.40;;
4980;SDS011;2507;50.392;7.482;2023-05-18T02:17:02;8.43;;;4.60;;
4980;SDS011;2507;50.392;7.482;2023-05-18T02:19:30;7.40;;;5.23;;
4980;SDS011;2507;50.392;7.482;2023-05-18T02:21:56;12.73;;;7.27;;
4980;SDS011;2507;50.392;7.482;2023-05-18T02:24:21;7.70;;;4.97;;
4980;SDS011;2507;50.392;7.482;2023-05-18T02:26:48;6.33;;;4.67;;
4980;SDS011;2507;50.392;7.482;2023-05-18T02:29:16;14.67;;;5.10;;
4980;SDS011;2507;50.392;7.482;2023-05-18T02:31:42;7.77;;;5.00;;
4980;SDS011;2507;50.392;7.482;2023-05-18T02:34:07;4.70;;;4.30;;
4980;SDS011;2507;50.392;7.482;2023-05-18T02:36:34;8.53;;;5.50;;
4980;SDS011;2507;50.392;7.482;2023-05-18T02:39:06;14.97;;;5.50;;
4980;SDS011;2507;50.392;7.482;2023-05-18T02:41:32;17.70;;;5.70;;
4980;SDS011;2507;50.392;7.482;2023-05-18T02:43:58;5.80;;;4.60;;
4980;SDS011;2507;50.392;7.482;2023-05-18T02:46:23;6.20;;;5.07;;
4980;SDS011;2507;50.392;7.482;2023-05-18T02:48:49;6.67;;;5.37;;
4980;SDS011;2507;50.392;7.482;2023-05-18T02:51:14;5.83;;;5.20;;
4980;SDS011;2507;50.392;7.482;2023-05-18T02:53:39;8.43;;;5.60;;
4980;SDS011;2507;50.392;7.482;2023-05-18T02:56:08;9.27;;;5.40;;
4980;SDS011;2507;50.392;7.482;2023-05-18T02:58:34;6.23;;;4.73;;
4980;SDS011;2507;50.392;7.482;2023-05-18T03:00:59;6.33;;;4.70;;
4980;SDS011;2507;50.392;7.482;2023-05-18T03:03:27;5.87;;;5.30;;
4980;SDS011;2507;50.392;7.482;2023-05-18T03:05:53;4.63;;;4.23;;
4980;SDS011;2507;50.392;7.482;2023-05-18T03:08:19;11.13;;;4.67;;
4980;SDS011;2507;50.392;7.482;2023-05-18T03:10:46;7.60;;;5.67;;
4980;SDS011;2507;50.392;7.482;2023-05-18T03:13:12;9.37;;;5.50;;
4980;SDS011;2507;50.392;7.482;2023-05-18T03:15:38;9.00;;;4.67;;
4980;SDS011;2507;50.392;7.482;2023-05-18T03:18:04;7.63;;;5.37;;
4980;SDS011;2507;50.392;7.482;2023-05-18T03:20:30;7.17;;;4.93;;
4980;SDS011;2507;50.392;7.482;2023-05-18T03:22:56;6.30;;;4.27;;
4980;SDS011;2507;50.392;7.482;2023-05-18T03:25:21;6.17;;;4.20;;
4980;SDS011;2507;50.392;7.482;2023-05-18T03:27:50;6.90;;;4.67;;
4980;SDS011;2507;50.392;7.482;2023-05-18T03:30:16;6.17;;;5.53;;
4980;SDS011;2507;50.392;7.482;2023-05-18T03:32:42;8.10;;;5.37;;
4980;SDS011;2507;50.392;7.482;2023-05-18T03:35:08;5.37;;;4.87;;
4980;SDS011;2507;50.392;7.482;2023-05-18T03:37:33;7.03;;;4.83;;
4980;SDS011;2507;50.392;7.482;2023-05-18T03:39:59;6.67;;;4.97;;
4980;SDS011;2507;50.392;7.482;2023-05-18T03:42:34;6.33;;;5.70;;
4980;SDS011;2507;50.392;7.482;2023-05-18T03:45:00;6.53;;;4.80;;
4980;SDS011;2507;50.392;7.482;2023-05-18T03:47:25;9.53;;;5.77;;
4980;SDS011;2507;50.392;7.482;2023-05-18T03:49:50;8.07;;;5.70;;
4980;SDS011;2507;50.392;7.482;2023-05-18T03:52:16;9.07;;;5.10;;
4980;SDS011;2507;50.392;7.482;2023-05-18T03:54:46;7.10;;;5.33;;
4980;SDS011;2507;50.392;7.482;2023-05-18T03:57:12;7.87;;;5.80;;
4980;SDS011;2507;50.392;7.482;2023-05-18T03:59:37;5.63;;;4.43;;
4980;SDS011;2507;50.392;7.482;2023-05-18T04:02:03;7.57;;;5.30;;
4980;SDS011;2507;50.392;7.482;2023-05-18T04:04:29;6.97;;;5.20;;
4980;SDS011;2507;50.392;7.482;2023-05-18T04:06:54;12.77;;;5.77;;
4980;SDS011;2507;50.392;7.482;2023-05-18T04:09:20;6.23;;;4.80;;
4980;SDS011;2507;50.392;7.482;2023-05-18T04:11:47;6.43;;;4.83;;
4980;SDS011;2507;50.392;7.482;2023-05-18T04:14:13;8.20;;;4.90;;
4980;SDS011;2507;50.392;7.482;2023-05-18T04:16:39;6.50;;;4.40;;
4980;SDS011;2507;50.392;7.482;2023-05-18T04:19:05;8.23;;;4.43;;
4980;SDS011;2507;50.392;7.482;2023-05-18T04:21:31;9.43;;;5.30;;
4980;SDS011;2507;50.392;7.482;2023-05-18T04:24:00;5.00;;;4.30;;
4980;SDS011;2507;50.392;7.482;2023-05-18T04:26:29;5.30;;;4.63;;
4980;SDS011;2507;50.392;7.482;2023-05-18T04:29:00;6.37;;;3.73;;
4980;SDS011;2507;50.392;7.482;2023-05-18T04:31:26;3.70;;;2.83;;
4980;SDS011;2507;50.392;7.482;2023-05-18T04:33:51;5.90;;;3.30;;
4980;SDS011;2507;50.392;7.482;2023-05-18T04:36:17;4.53;;;3.10;;
4980;SDS011;2507;50.392;7.482;2023-05-18T04:38:44;3.93;;;3.30;;
4980;SDS011;2507;50.392;7.482;2023-05-18T04:41:10;3.93;;;3.50;;
4980;SDS011;2507;50.392;7.482;2023-05-18T04:43:35;8.43;;;3.30;;
4980;SDS011;2507;50.392;7.482;2023-05-18T04:46:01;7.40;;;3.17;;
4980;SDS011;2507;50.392;7.482;2023-05-18T04:48:27;4.50;;;3.30;;
4980;SDS011;2507;50.392;7.482;2023-05-18T04:50:53;4.90;;;3.30;;
4980;SDS011;2507;50.392;7.482;2023-05-18T04:53:20;4.93;;;2.93;;
4980;SDS011;2507;50.392;7.482;2023-05-18T04:55:49;5.50;;;3.50;;
4980;SDS011;2507;50.392;7.482;2023-05-18T04:58:17;6.70;;;3.57;;
4980;SDS011;2507;50.392;7.482;2023-05-18T05:00:43;10.20;;;3.40;;
4980;SDS011;2507;50.392;7.482;2023-05-18T05:03:08;3.27;;;2.63;;
4980;SDS011;2507;50.392;7.482;2023-05-18T05:05:34;8.30;;;2.57;;
4980;SDS011;2507;50.392;7.482;2023-05-18T05:07:59;6.53;;;3.20;;
4980;SDS011;2507;50.392;7.482;2023-05-18T05:10:25;6.83;;;2.40;;
4980;SDS011;2507;50.392;7.482;2023-05-18T05:12:52;5.30;;;2.87;;
4980;SDS011;2507;50.392;7.482;2023-05-18T05:15:18;4.23;;;2.63;;
4980;SDS011;2507;50.392;7.482;2023-05-18T05:17:47;7.53;;;3.37;;
4980;SDS011;2507;50.392;7.482;2023-05-18T05:20:13;6.10;;;3.10;;
4980;SDS011;2507;50.392;7.482;2023-05-18T05:22:39;4.97;;;2.80;;
4980;SDS011;2507;50.392;7.482;2023-05-18T05:25:04;3.87;;;2.93;;
4980;SDS011;2507;50.392;7.482;2023-05-18T05:27:30;9.87;;;3.57;;
4980;SDS011;2507;50.392;7.482;2023-05-18T05:29:55;9.30;;;3.20;;
4980;SDS011;2507;50.392;7.482;2023-05-18T05:32:21;4.40;;;3.07;;
4980;SDS011;2507;50.392;7.482;2023-05-18T05:34:46;9.53;;;3.27;;
4980;SDS011;2507;50.392;7.482;2023-05-18T05:37:14;7.50;;;3.27;;
4980;SDS011;2507;50.392;7.482;2023-05-18T05:39:39;3.50;;;3.20;;
4980;SDS011;2507;50.392;7.482;2023-05-18T05:42:05;6.60;;;3.03;;
4980;SDS011;2507;50.392;7.482;2023-05-18T05:44:31;3.90;;;2.60;;
4980;SDS011;2507;50.392;7.482;2023-05-18T05:46:56;5.20;;;3.00;;
4980;SDS011;2507;50.392;7.482;2023-05-18T05:49:22;5.20;;;2.80;;
4980;SDS011;2507;50.392;7.482;2023-05-18T05:51:47;5.53;;;2.87;;
4980;SDS011;2507;50.392;7.482;2023-05-18T05:54:13;4.40;;;2.80;;
4980;SDS011;2507;50.392;7.482;2023-05-18T05:56:38;6.53;;;3.33;;
4980;SDS011;2507;50.392;7.482;2023-05-18T05:59:04;4.20;;;2.53;;
4980;SDS011;2507;50.392;7.482;2023-05-18T06:01:29;5.33;;;2.83;;
4980;SDS011;2507;50.392;7.482;2023-05-18T06:03:54;3.90;;;2.40;;
4980;SDS011;2507;50.392;7.482;2023-05-18T06:06:20;4.73;;;2.50;;
4980;SDS011;2507;50.392;7.482;2023-05-18T06:08:45;4.70;;;2.80;;
4980;SDS011;2507;50.392;7.482;2023-05-18T06:11:11;6.50;;;2.67;;
4980;SDS011;2507;50.392;7.482;2023-05-18T06:13:36;5.57;;;2.70;;
4980;SDS011;2507;50.392;7.482;2023-05-18T06:16:02;7.53;;;2.30;;
4980;SDS011;2507;50.392;7.482;2023-05-18T06:18:27;5.60;;;2.57;;
4980;SDS011;2507;50.392;7.482;2023-05-18T06:20:52;3.00;;;1.80;;
4980;SDS011;2507;50.392;7.482;2023-05-18T06:23:18;5.80;;;2.60;;
4980;SDS011;2507;50.392;7.482;2023-05-18T06:25:47;6.63;;;2.50;;
4980;SDS011;2507;50.392;7.482;2023-05-18T06:28:13;5.07;;;3.20;;
4980;SDS011;2507;50.392;7.482;2023-05-18T06:30:39;5.00;;;2.57;;
4980;SDS011;2507;50.392;7.482;2023-05-18T06:33:04;6.90;;;2.67;;
4980;SDS011;2507;50.392;7.482;2023-05-18T06:35:30;7.70;;;3.13;;
4980;SDS011;2507;50.392;7.482;2023-05-18T06:37:55;6.10;;;2.40;;
4980;SDS011;2507;50.392;7.482;2023-05-18T06:40:21;7.27;;;2.70;;
4980;SDS011;2507;50.392;7.482;2023-05-18T06:42:46;4.93;;;2.20;;
4980;SDS011;2507;50.392;7.482;2023-05-18T06:45:11;4.10;;;1.77;;
4980;SDS011;2507;50.392;7.482;2023-05-18T06:47:37;5.10;;;2.37;;
4980;SDS011;2507;50.392;7.482;2023-05-18T06:50:02;7.83;;;2.20;;
4980;SDS011;2507;50.392;7.482;2023-05-18T06:52:28;5.23;;;2.60;;
4980;SDS011;2507;50.392;7.482;2023-05-18T06:54:54;3.70;;;2.30;;
4980;SDS011;2507;50.392;7.482;2023-05-18T06:57:19;3.80;;;2.07;;
4980;SDS011;2507;50.392;7.482;2023-05-18T06:59:44;7.93;;;2.77;;
4980;SDS011;2507;50.392;7.482;2023-05-18T07:02:14;2.43;;;2.07;;
4980;SDS011;2507;50.392;7.482;2023-05-18T07:04:39;3.00;;;2.43;;
4980;SDS011;2507;50.392;7.482;2023-05-18T07:07:05;3.43;;;2.10;;
4980;SDS011;2507;50.392;7.482;2023-05-18T07:09:31;2.90;;;1.63;;
4980;SDS011;2507;50.392;7.482;2023-05-18T07:11:56;5.80;;;2.00;;
4980;SDS011;2507;50.392;7.482;2023-05-18T07:14:22;3.40;;;1.90;;
4980;SDS011;2507;50.392;7.482;2023-05-18T07:16:47;5.33;;;1.90;;
4980;SDS011;2507;50.392;7.482;2023-05-18T07:19:13;4.40;;;2.33;;
4980;SDS011;2507;50.392;7.482;2023-05-18T07:21:38;4.50;;;2.17;;
4980;SDS011;2507;50.392;7.482;2023-05-18T07:24:04;4.57;;;2.00;;
4980;SDS011;2507;50.392;7.482;2023-05-18T07:26:29;4.40;;;2.10;;
4980;SDS011;2507;50.392;7.482;2023-05-18T07:28:56;5.70;;;2.17;;
4980;SDS011;2507;50.392;7.482;2023-05-18T07:31:21;2.80;;;2.20;;
4980;SDS011;2507;50.392;7.482;2023-05-18T07:33:47;5.27;;;1.70;;
4980;SDS011;2507;50.392;7.482;2023-05-18T07:36:12;4.60;;;2.20;;
4980;SDS011;2507;50.392;7.482;2023-05-18T07:38:38;4.80;;;1.97;;
4980;SDS011;2507;50.392;7.482;2023-05-18T07:41:03;4.47;;;2.30;;
4980;SDS011;2507;50.392;7.482;2023-05-18T07:43:29;2.80;;;1.70;;
4980;SDS011;2507;50.392;7.482;2023-05-18T07:45:54;7.30;;;2.20;;
4980;SDS011;2507;50.392;7.482;2023-05-18T07:48:20;4.07;;;2.13;;
4980;SDS011;2507;50.392;7.482;2023-05-18T07:50:45;4.90;;;2.07;;
4980;SDS011;2507;50.392;7.482;2023-05-18T07:53:10;5.10;;;2.40;;
4980;SDS011;2507;50.392;7.482;2023-05-18T07:55:36;5.97;;;2.30;;
4980;SDS011;2507;50.392;7.482;2023-05-18T07:58:01;4.83;;;2.30;;
4980;SDS011;2507;50.392;7.482;2023-05-18T08:00:26;7.10;;;2.10;;
4980;SDS011;2507;50.392;7.482;2023-05-18T08:02:52;3.10;;;2.00;;
4980;SDS011;2507;50.392;7.482;2023-05-18T08:05:18;3.70;;;2.27;;
4980;SDS011;2507;50.392;7.482;2023-05-18T08:07:45;6.23;;;2.57;;
4980;SDS011;2507;50.392;7.482;2023-05-18T08:10:10;5.00;;;2.20;;
4980;SDS011;2507;50.392;7.482;2023-05-18T08:12:35;3.07;;;2.00;;
4980;SDS011;2507;50.392;7.482;2023-05-18T08:15:01;4.63;;;2.40;;
4980;SDS011;2507;50.392;7.482;2023-05-18T08:17:26;7.87;;;3.83;;
4980;SDS011;2507;50.392;7.482;2023-05-18T08:19:52;6.13;;;3.07;;
4980;SDS011;2507;50.392;7.482;2023-05-18T08:22:17;5.03;;;2.60;;
4980;SDS011;2507;50.392;7.482;2023-05-18T08:24:43;5.93;;;2.20;;
4980;SDS011;2507;50.392;7.482;2023-05-18T08:27:09;4.90;;;1.90;;
4980;SDS011;2507;50.392;7.482;2023-05-18T08:29:35;4.00;;;2.00;;
4980;SDS011;2507;50.392;7.482;2023-05-18T08:32:00;5.50;;;2.20;;
4980;SDS011;2507;50.392;7.482;2023-05-18T08:34:26;4.20;;;2.13;;
4980;SDS011;2507;50.392;7.482;2023-05-18T08:36:51;8.40;;;2.47;;
4980;SDS011;2507;50.392;7.482;2023-05-18T08:39:17;6.20;;;2.77;;
4980;SDS011;2507;50.392;7.482;2023-05-18T08:44:29;3.70;;;1.90;;
4980;SDS011;2507;50.392;7.482;2023-05-18T08:47:02;6.63;;;3.83;;
4980;SDS011;2507;50.392;7.482;2023-05-18T08:49:30;5.73;;;2.50;;
4980;SDS011;2507;50.392;7.482;2023-05-18T08:51:56;5.10;;;3.20;;
4980;SDS011;2507;50.392;7.482;2023-05-18T08:54:27;6.80;;;2.43;;
4980;SDS011;2507;50.392;7.482;2023-05-18T08:56:54;6.30;;;2.40;;
4980;SDS011;2507;50.392;7.482;2023-05-18T08:59:22;5.30;;;2.07;;
4980;SDS011;2507;50.392;7.482;2023-05-18T09:01:49;6.83;;;2.67;;
4980;SDS011;2507;50.392;7.482;2023-05-18T09:04:16;4.97;;;2.97;;
4980;SDS011;2507;50.392;7.482;2023-05-18T09:06:43;4.30;;;1.90;;
4980;SDS011;2507;50.392;7.482;2023-05-18T09:09:10;3.50;;;1.90;;
4980;SDS011;2507;50.392;7.482;2023-05-18T09:11:36;4.07;;;2.33;;
4980;SDS011;2507;50.392;7.482;2023-05-18T09:14:03;6.27;;;2.50;;
4980;SDS011;2507;50.392;7.482;2023-05-18T09:16:28;5.40;;;2.20;;
4980;SDS011;2507;50.392;7.482;2023-05-18T09:18:54;7.87;;;2.73;;
4980;SDS011;2507;50.392;7.482;2023-05-18T09:21:19;3.53;;;2.00;;
4980;SDS011;2507;50.392;7.482;2023-05-18T09:23:45;6.00;;;2.00;;
4980;SDS011;2507;50.392;7.482;2023-05-18T09:26:11;3.37;;;2.37;;
4980;SDS011;2507;50.392;7.482;2023-05-18T09:28:38;3.63;;;2.50;;
4980;SDS011;2507;50.392;7.482;2023-05-18T09:31:06;10.60;;;2.93;;
4980;SDS011;2507;50.392;7.482;2023-05-18T09:33:37;5.07;;;2.53;;
4980;SDS011;2507;50.392;7.482;2023-05-18T09:36:04;7.73;;;2.70;;
4980;SDS011;2507;50.392;7.482;2023-05-18T09:38:35;4.30;;;2.27;;
4980;SDS011;2507;50.392;7.482;2023-05-18T09:41:10;6.03;;;2.53;;
4980;SDS011;2507;50.392;7.482;2023-05-18T09:43:38;8.33;;;2.70;;
4980;SDS011;2507;50.392;7.482;2023-05-18T09:46:07;8.70;;;3.00;;
4980;SDS011;2507;50.392;7.482;2023-05-18T09:48:36;7.40;;;2.63;;
4980;SDS011;2507;50.392;7.482;2023-05-18T09:51:06;7.03;;;2.80;;
4980;SDS011;2507;50.392;7.482;2023-05-18T09:53:34;6.63;;;3.70;;
4980;SDS011;2507;50.392;7.482;2023-05-18T09:56:07;7.03;;;2.33;;
4980;SDS011;2507;50.392;7.482;2023-05-18T09:58:36;5.10;;;2.00;;
4980;SDS011;2507;50.392;7.482;2023-05-18T10:01:03;4.70;;;2.30;;
4980;SDS011;2507;50.392;7.482;2023-05-18T10:03:35;8.20;;;2.90;;
4980;SDS011;2507;50.392;7.482;2023-05-18T10:06:05;4.40;;;2.00;;
4980;SDS011;2507;50.392;7.482;2023-05-18T10:08:31;4.70;;;2.77;;
4980;SDS011;2507;50.392;7.482;2023-05-18T10:10:56;4.63;;;2.70;;
4980;SDS011;2507;50.392;7.482;2023-05-18T10:13:23;5.90;;;2.40;;
4980;SDS011;2507;50.392;7.482;2023-05-18T10:15:51;6.27;;;1.97;;
4980;SDS011;2507;50.392;7.482;2023-05-18T10:18:25;8.13;;;2.30;;
4980;SDS011;2507;50.392;7.482;2023-05-18T10:20:56;6.20;;;2.50;;
4980;SDS011;2507;50.392;7.482;2023-05-18T10:23:23;7.80;;;2.93;;
4980;SDS011;2507;50.392;7.482;2023-05-18T10:25:50;6.70;;;2.67;;
4980;SDS011;2507;50.392;7.482;2023-05-18T10:28:24;6.57;;;2.40;;
4980;SDS011;2507;50.392;7.482;2023-05-18T10:30:53;4.63;;;2.30;;
4980;SDS011;2507;50.392;7.482;2023-05-18T10:33:20;8.73;;;2.63;;
4980;SDS011;2507;50.392;7.482;2023-05-18T10:35:47;6.77;;;2.37;;
4980;SDS011;2507;50.392;7.482;2023-05-18T10:38:14;7.37;;;2.53;;
4980;SDS011;2507;50.392;7.482;2023-05-18T10:40:51;5.60;;;2.40;;
4980;SDS011;2507;50.392;7.482;2023-05-18T10:43:19;5.93;;;2.40;;
4980;SDS011;2507;50.392;7.482;2023-05-18T10:45:51;6.27;;;2.53;;
4980;SDS011;2507;50.392;7.482;2023-05-18T10:48:21;3.00;;;2.17;;
4980;SDS011;2507;50.392;7.482;2023-05-18T10:50:48;3.00;;;2.00;;
4980;SDS011;2507;50.392;7.482;2023-05-18T10:53:17;7.23;;;2.07;;
4980;SDS011;2507;50.392;7.482;2023-05-18T10:55:46;4.20;;;2.10;;
4980;SDS011;2507;50.392;7.482;2023-05-18T10:58:12;4.30;;;2.50;;
4980;SDS011;2507;50.392;7.482;2023-05-18T11:00:40;5.20;;;2.77;;
4980;SDS011;2507;50.392;7.482;2023-05-18T11:03:13;4.87;;;2.50;;
4980;SDS011;2507;50.392;7.482;2023-05-18T11:05:40;7.00;;;2.53;;
4980;SDS011;2507;50.392;7.482;2023-05-18T11:08:06;4.20;;;2.70;;
4980;SDS011;2507;50.392;7.482;2023-05-18T11:10:33;5.77;;;2.50;;
4980;SDS011;2507;50.392;7.482;2023-05-18T11:13:08;3.70;;;2.30;;
4980;SDS011;2507;50.392;7.482;2023-05-18T11:18:19;9.13;;;2.80;;
4980;SDS011;2507;50.392;7.482;2023-05-18T11:20:50;11.47;;;2.23;;
4980;SDS011;2507;50.392;7.482;2023-05-18T11:23:16;9.13;;;2.40;;
4980;SDS011;2507;50.392;7.482;2023-05-18T11:25:47;5.97;;;2.80;;
4980;SDS011;2507;50.392;7.482;2023-05-18T11:28:12;4.30;;;1.90;;
4980;SDS011;2507;50.392;7.482;2023-05-18T11:33:12;3.70;;;2.20;;
4980;SDS011;2507;50.392;7.482;2023-05-18T11:41:27;10.27;;;3.13;;
4980;SDS011;2507;50.392;7.482;2023-05-18T11:44:04;5.83;;;2.60;;
4980;SDS011;2507;50.392;7.482;2023-05-18T11:46:34;8.90;;;2.77;;
4980;SDS011;2507;50.392;7.482;2023-05-18T11:49:05;5.23;;;2.20;;
4980;SDS011;2507;50.392;7.482;2023-05-18T11:51:31;7.23;;;2.13;;
4980;SDS011;2507;50.392;7.482;2023-05-18T11:53:58;8.50;;;2.40;;
4980;SDS011;2507;50.392;7.482;2023-05-18T11:56:24;4.03;;;1.90;;
4980;SDS011;2507;50.392;7.482;2023-05-18T12:01:36;5.10;;;2.40;;
4980;SDS011;2507;50.392;7.482;2023-05-18T12:04:02;7.20;;;2.97;;
4980;SDS011;2507;50.392;7.482;2023-05-18T12:06:28;5.77;;;2.70;;
4980;SDS011;2507;50.392;7.482;2023-05-18T12:08:54;7.83;;;2.87;;
4980;SDS011;2507;50.392;7.482;2023-05-18T12:11:20;6.93;;;2.70;;
4980;SDS011;2507;50.392;7.482;2023-05-18T12:13:46;5.10;;;2.70;;
4980;SDS011;2507;50.392;7.482;2023-05-18T12:16:15;6.30;;;2.33;;
4980;SDS011;2507;50.392;7.482;2023-05-18T12:18:41;4.87;;;2.07;;
4980;SDS011;2507;50.392;7.482;2023-05-18T12:21:12;2.87;;;2.33;;
4980;SDS011;2507;50.392;7.482;2023-05-18T12:23:37;4.60;;;2.27;;
4980;SDS011;2507;50.392;7.482;2023-05-18T12:26:03;8.50;;;2.00;;
4980;SDS011;2507;50.392;7.482;2023-05-18T12:28:28;8.20;;;2.60;;
4980;SDS011;2507;50.392;7.482;2023-05-18T12:30:57;4.97;;;2.53;;
4980;SDS011;2507;50.392;7.482;2023-05-18T12:33:23;5.30;;;2.20;;
4980;SDS011;2507;50.392;7.482;2023-05-18T12:35:48;13.00;;;2.20;;
4980;SDS011;2507;50.392;7.482;2023-05-18T12:38:13;5.27;;;2.20;;
4980;SDS011;2507;50.392;7.482;2023-05-18T12:40:41;6.10;;;2.63;;
4980;SDS011;2507;50.392;7.482;2023-05-18T12:43:12;4.87;;;2.00;;
4980;SDS011;2507;50.392;7.482;2023-05-18T12:45:37;6.83;;;2.33;;
4980;SDS011;2507;50.392;7.482;2023-05-18T12:48:05;3.40;;;2.53;;
4980;SDS011;2507;50.392;7.482;2023-05-18T12:50:31;5.40;;;2.30;;
4980;SDS011;2507;50.392;7.482;2023-05-18T12:52:56;10.73;;;3.00;;
4980;SDS011;2507;50.392;7.482;2023-05-18T12:55:22;8.53;;;3.10;;
4980;SDS011;2507;50.392;7.482;2023-05-18T13:00:30;6.27;;;2.17;;
4980;SDS011;2507;50.392;7.482;2023-05-18T13:05:31;4.43;;;2.30;;
4980;SDS011;2507;50.392;7.482;2023-05-18T13:07:57;4.50;;;2.40;;
4980;SDS011;2507;50.392;7.482;2023-05-18T13:10:22;4.27;;;2.20;;
4980;SDS011;2507;50.392;7.482;2023-05-18T13:12:48;4.23;;;2.53;;
4980;SDS011;2507;50.392;7.482;2023-05-18T13:15:15;6.43;;;2.80;;
4980;SDS011;2507;50.392;7.482;2023-05-18T13:20:20;3.30;;;2.13;;
4980;SDS011;2507;50.392;7.482;2023-05-18T13:22:47;4.53;;;2.40;;
4980;SDS011;2507;50.392;7.482;2023-05-18T13:25:14;6.73;;;3.30;;
4980;SDS011;2507;50.392;7.482;2023-05-18T13:27:40;5.10;;;2.43;;
4980;SDS011;2507;50.392;7.482;2023-05-18T13:30:05;5.13;;;2.20;;
4980;SDS011;2507;50.392;7.482;2023-05-18T13:32:32;7.00;;;2.30;;
4980;SDS011;2507;50.392;7.482;2023-05-18T13:34:57;9.03;;;2.60;;
4980;SDS011;2507;50.392;7.482;2023-05-18T13:37:22;7.73;;;3.40;;
4980;SDS011;2507;50.392;7.482;2023-05-18T13:39:48;4.73;;;2.73;;
4980;SDS011;2507;50.392;7.482;2023-05-18T13:42:13;3.20;;;2.47;;
4980;SDS011;2507;50.392;7.482;2023-05-18T13:44:38;5.60;;;2.70;;
4980;SDS011;2507;50.392;7.482;2023-05-18T13:47:04;5.00;;;2.20;;
4980;SDS011;2507;50.392;7.482;2023-05-18T13:49:29;12.27;;;2.80;;
4980;SDS011;2507;50.392;7.482;2023-05-18T13:51:55;3.80;;;2.80;;
4980;SDS011;2507;50.392;7.482;2023-05-18T13:54:23;3.30;;;2.43;;
4980;SDS011;2507;50.392;7.482;2023-05-18T13:56:48;4.73;;;2.20;;
4980;SDS011;2507;50.392;7.482;2023-05-18T13:59:13;5.87;;;2.63;;
4980;SDS011;2507;50.392;7.482;2023-05-18T14:01:40;7.70;;;2.57;;
4980;SDS011;2507;50.392;7.482;2023-05-18T14:04:06;4.30;;;2.80;;
4980;SDS011;2507;50.392;7.482;2023-05-18T14:06:31;4.23;;;2.33;;
4980;SDS011;2507;50.392;7.482;2023-05-18T14:08:56;4.27;;;2.30;;
4980;SDS011;2507;50.392;7.482;2023-05-18T14:11:21;5.60;;;2.60;;
4980;SDS011;2507;50.392;7.482;2023-05-18T14:13:47;4.97;;;2.90;;
4980;SDS011;2507;50.392;7.482;2023-05-18T14:16:12;3.60;;;2.27;;
4980;SDS011;2507;50.392;7.482;2023-05-18T14:18:37;4.23;;;2.47;;
4980;SDS011;2507;50.392;7.482;2023-05-18T14:21:03;4.70;;;2.80;;
4980;SDS011;2507;50.392;7.482;2023-05-18T14:23:28;5.20;;;2.40;;
4980;SDS011;2507;50.392;7.482;2023-05-18T14:25:53;4.50;;;2.33;;
4980;SDS011;2507;50.392;7.482;2023-05-18T14:28:19;4.23;;;2.50;;
4980;SDS011;2507;50.392;7.482;2023-05-18T14:30:45;4.23;;;2.70;;
4980;SDS011;2507;50.392;7.482;2023-05-18T14:33:11;7.90;;;2.47;;
4980;SDS011;2507;50.392;7.482;2023-05-18T14:35:37;6.30;;;2.70;;
4980;SDS011;2507;50.392;7.482;2023-05-18T14:38:04;9.50;;;3.67;;
4980;SDS011;2507;50.392;7.482;2023-05-18T14:40:29;2.67;;;2.07;;
4980;SDS011;2507;50.392;7.482;2023-05-18T14:42:55;6.97;;;2.80;;
4980;SDS011;2507;50.392;7.482;2023-05-18T14:45:21;6.13;;;2.83;;
4980;SDS011;2507;50.392;7.482;2023-05-18T14:47:49;3.37;;;2.50;;
4980;SDS011;2507;50.392;7.482;2023-05-18T14:50:15;4.80;;;2.77;;
4980;SDS011;2507;50.392;7.482;2023-05-18T14:52:41;5.03;;;2.53;;
4980;SDS011;2507;50.392;7.482;2023-05-18T14:55:07;2.90;;;2.63;;
4980;SDS011;2507;50.392;7.482;2023-05-18T14:57:33;4.63;;;2.63;;
4980;SDS011;2507;50.392;7.482;2023-05-18T14:59:58;6.23;;;2.67;;
4980;SDS011;2507;50.392;7.482;2023-05-18T15:02:25;7.03;;;3.37;;
4980;SDS011;2507;50.392;7.482;2023-05-18T15:04:53;5.93;;;2.93;;
4980;SDS011;2507;50.392;7.482;2023-05-18T15:07:19;3.90;;;2.10;;
4980;SDS011;2507;50.392;7.482;2023-05-18T15:09:54;5.67;;;4.20;;
4980;SDS011;2507;50.392;7.482;2023-05-18T15:12:23;6.23;;;2.53;;
4980;SDS011;2507;50.392;7.482;2023-05-18T15:14:48;3.80;;;2.30;;
4980;SDS011;2507;50.392;7.482;2023-05-18T15:17:14;7.73;;;3.07;;
4980;SDS011;2507;50.392;7.482;2023-05-18T15:19:41;7.10;;;2.97;;
4980;SDS011;2507;50.392;7.482;2023-05-18T15:22:11;8.17;;;4.50;;
4980;SDS011;2507;50.392;7.482;2023-05-18T15:24:36;6.07;;;4.23;;
4980;SDS011;2507;50.392;7.482;2023-05-18T15:27:02;5.90;;;2.90;;
4980;SDS011;2507;50.392;7.482;2023-05-18T15:29:28;5.23;;;2.40;;
4980;SDS011;2507;50.392;7.482;2023-05-18T15:31:56;5.97;;;2.47;;
4980;SDS011;2507;50.392;7.482;2023-05-18T15:34:22;4.80;;;2.53;;
4980;SDS011;2507;50.392;7.482;2023-05-18T15:36:47;5.90;;;3.10;;
4980;SDS011;2507;50.392;7.482;2023-05-18T15:39:14;5.63;;;2.30;;
4980;SDS011;2507;50.392;7.482;2023-05-18T15:41:39;5.27;;;2.00;;
4980;SDS011;2507;50.392;7.482;2023-05-18T15:44:05;2.17;;;1.97;;